createdAt,value
2018-03-20T00:00:15.938Z,12.07
2018-03-20T00:02:44.090Z,13.23
2018-03-20T00:05:12.251Z,15.87
2018-03-20T00:07:50.080Z,11.53
2018-03-20T00:10:18.242Z,13.93
2018-03-20T00:12:46.377Z,11.93
2018-03-20T00:15:15.302Z,10.60
2018-03-20T00:17:43.447Z,14.37
2018-03-20T00:20:12.377Z,16.00
2018-03-20T00:22:40.519Z,10.20
2018-03-20T00:25:08.660Z,9.03
2018-03-20T00:27:36.821Z,12.40
2018-03-20T00:30:04.965Z,12.43
2018-03-20T00:32:33.137Z,12.03
2018-03-20T00:35:01.283Z,13.47
2018-03-20T00:37:43.803Z,11.27
2018-03-20T00:40:11.987Z,12.60
2018-03-20T00:42:40.178Z,12.37
2018-03-20T00:45:08.464Z,13.33
2018-03-20T00:47:41.257Z,10.50
2018-03-20T00:50:09.434Z,11.30
2018-03-20T00:52:37.637Z,10.23
2018-03-20T00:55:05.810Z,13.27
2018-03-20T00:57:42.226Z,8.33
2018-03-20T01:00:10.377Z,10.67
2018-03-20T01:02:38.574Z,10.37
2018-03-20T01:05:06.738Z,12.53
2018-03-20T01:07:47.955Z,12.93
2018-03-20T01:10:16.115Z,11.77
2018-03-20T01:12:44.262Z,12.67
2018-03-20T01:15:12.427Z,12.60
2018-03-20T01:17:48.118Z,14.97
2018-03-20T01:20:16.290Z,11.93
2018-03-20T01:22:44.439Z,14.53
2018-03-20T01:25:12.616Z,13.77
2018-03-20T01:27:43.690Z,16.10
2018-03-20T01:30:11.915Z,14.03
2018-03-20T01:32:40.071Z,15.70
2018-03-20T01:35:08.237Z,11.57
2018-03-20T01:37:37.229Z,14.50
2018-03-20T01:40:05.446Z,19.33
2018-03-20T01:42:34.526Z,16.93
2018-03-20T01:45:02.736Z,12.93
2018-03-20T01:47:36.224Z,13.00
2018-03-20T01:50:04.481Z,15.80
2018-03-20T01:52:32.699Z,15.30
2018-03-20T01:55:00.868Z,12.93
2018-03-20T01:57:29.102Z,15.10
2018-03-20T01:59:57.272Z,18.00
2018-03-20T02:02:25.506Z,13.93
2018-03-20T02:04:53.677Z,12.80
2018-03-20T02:07:24.587Z,16.10
2018-03-20T02:09:52.774Z,14.97
2018-03-20T02:12:21.062Z,16.40
2018-03-20T02:14:50.015Z,16.47
2018-03-20T02:17:21.359Z,17.50
2018-03-20T02:19:49.523Z,15.97
2018-03-20T02:22:17.786Z,12.23
2018-03-20T02:24:45.947Z,18.20
2018-03-20T02:27:19.147Z,21.30
2018-03-20T02:29:47.363Z,13.17
2018-03-20T02:32:15.588Z,12.90
2018-03-20T02:34:43.764Z,15.53
2018-03-20T02:37:11.952Z,14.57
2018-03-20T02:39:40.098Z,14.03
2018-03-20T02:42:08.288Z,13.97
2018-03-20T02:44:37.402Z,15.17
2018-03-20T02:47:15.941Z,15.33
2018-03-20T02:49:44.089Z,14.30
2018-03-20T02:52:12.237Z,15.73
2018-03-20T02:54:40.398Z,14.30
2018-03-20T02:57:13.434Z,16.30
2018-03-20T02:59:41.597Z,14.53
2018-03-20T03:02:09.749Z,12.07
2018-03-20T03:04:37.917Z,12.73
2018-03-20T03:07:10.530Z,11.67
2018-03-20T03:09:38.694Z,12.87
2018-03-20T03:12:06.842Z,13.57
2018-03-20T03:14:35.053Z,12.87
2018-03-20T03:17:12.123Z,16.00
2018-03-20T03:19:40.296Z,14.57
2018-03-20T03:22:09.395Z,15.67
2018-03-20T03:24:37.558Z,14.13
2018-03-20T03:27:05.710Z,10.47
2018-03-20T03:29:33.866Z,14.90
2018-03-20T03:32:02.775Z,11.87
2018-03-20T03:34:30.928Z,12.37
2018-03-20T03:37:00.814Z,14.83
2018-03-20T03:39:28.976Z,13.17
2018-03-20T03:41:57.142Z,13.30
2018-03-20T03:44:25.310Z,17.40
2018-03-20T03:46:53.461Z,15.57
2018-03-20T03:49:21.691Z,16.17
2018-03-20T03:51:49.842Z,17.40
2018-03-20T03:54:17.977Z,13.33
2018-03-20T03:56:47.144Z,12.70
2018-03-20T03:59:15.281Z,12.30
2018-03-20T04:01:43.474Z,14.73
2018-03-20T04:04:11.619Z,15.77
2018-03-20T04:06:42.817Z,14.43
2018-03-20T04:09:11.766Z,15.07
2018-03-20T04:11:39.929Z,13.07
2018-03-20T04:14:08.069Z,13.87
2018-03-20T04:16:36.994Z,10.73
2018-03-20T04:19:05.128Z,13.97
2018-03-20T04:21:34.054Z,14.30
2018-03-20T04:24:02.203Z,12.63
2018-03-20T04:26:30.450Z,14.03
2018-03-20T04:28:58.635Z,14.57
2018-03-20T04:31:27.635Z,13.27
2018-03-20T04:33:56.635Z,15.37
2018-03-20T04:36:25.787Z,14.07
2018-03-20T04:38:54.007Z,13.97
2018-03-20T04:41:22.251Z,16.20
2018-03-20T04:43:50.483Z,12.63
2018-03-20T04:46:22.037Z,11.80
2018-03-20T04:48:50.254Z,12.50
2018-03-20T04:51:18.430Z,11.33
2018-03-20T04:53:46.678Z,12.57
2018-03-20T04:56:14.880Z,17.43
2018-03-20T04:58:43.082Z,16.57
2018-03-20T05:01:11.283Z,13.80
2018-03-20T05:03:39.490Z,11.40
2018-03-20T05:06:07.639Z,12.57
2018-03-20T05:08:35.800Z,15.93
2018-03-20T05:11:03.966Z,9.70
2018-03-20T05:13:32.129Z,16.60
2018-03-20T05:16:10.770Z,14.67
2018-03-20T05:21:49.665Z,15.73
2018-03-20T05:24:18.594Z,13.03
2018-03-20T05:27:01.082Z,18.33
2018-03-20T05:29:30.014Z,13.93
2018-03-20T05:31:58.153Z,15.27
2018-03-20T05:34:26.367Z,13.43
2018-03-20T05:37:08.849Z,17.27
2018-03-20T05:39:37.046Z,16.40
2018-03-20T05:42:05.197Z,17.53
2018-03-20T05:44:33.394Z,22.40
2018-03-20T05:50:12.188Z,13.67
2018-03-20T05:52:41.114Z,15.47
2018-03-20T05:55:09.286Z,14.10
2018-03-20T05:57:45.144Z,17.83
2018-03-20T06:00:13.303Z,13.93
2018-03-20T06:02:41.471Z,15.73
2018-03-20T06:05:09.639Z,11.50
2018-03-20T06:07:37.778Z,15.30
2018-03-20T06:10:05.922Z,16.17
2018-03-20T06:12:34.089Z,21.93
2018-03-20T06:15:02.241Z,19.77
2018-03-20T06:17:30.406Z,22.67
2018-03-20T06:19:58.545Z,16.83
2018-03-20T06:22:26.706Z,15.17
2018-03-20T06:24:54.851Z,17.03
2018-03-20T06:27:23.023Z,19.40
2018-03-20T06:29:51.212Z,16.37
2018-03-20T06:32:19.365Z,18.90
2018-03-20T06:34:47.518Z,19.17
2018-03-20T06:37:18.865Z,15.90
2018-03-20T06:39:47.016Z,17.73
2018-03-20T06:42:16.011Z,16.90
2018-03-20T06:44:44.971Z,11.73
2018-03-20T06:47:13.130Z,14.53
2018-03-20T06:49:41.398Z,15.03
2018-03-20T06:52:09.598Z,14.23
2018-03-20T06:54:37.835Z,16.67
2018-03-20T06:57:06.963Z,14.63
2018-03-20T06:59:35.215Z,13.33
2018-03-20T07:02:04.124Z,16.00
2018-03-20T07:04:32.386Z,10.80
2018-03-20T07:07:01.567Z,14.40
2018-03-20T07:09:29.776Z,13.80
2018-03-20T07:11:57.982Z,13.90
2018-03-20T07:14:26.922Z,15.97
2018-03-20T07:16:55.110Z,12.40
2018-03-20T07:19:23.310Z,15.00
2018-03-20T07:21:51.475Z,17.87
2018-03-20T07:24:19.622Z,14.57
2018-03-20T07:26:51.795Z,16.10
2018-03-20T07:29:19.942Z,17.23
2018-03-20T07:31:48.107Z,14.57
2018-03-20T07:34:16.246Z,11.60
2018-03-20T07:36:44.441Z,8.70
2018-03-20T07:39:12.659Z,12.40
2018-03-20T07:41:40.848Z,10.27
2018-03-20T07:44:09.014Z,12.30
2018-03-20T07:46:47.688Z,10.37
2018-03-20T07:49:15.858Z,11.23
2018-03-20T07:51:44.074Z,11.83
2018-03-20T07:54:12.244Z,12.73
2018-03-20T07:56:50.656Z,12.87
2018-03-20T07:59:18.802Z,13.07
2018-03-20T08:01:46.979Z,10.30
2018-03-20T08:04:15.165Z,12.80
2018-03-20T08:06:46.779Z,14.83
2018-03-20T08:09:15.746Z,11.67
2018-03-20T08:11:43.935Z,13.03
2018-03-20T08:14:12.135Z,15.33
2018-03-20T08:16:40.348Z,15.33
2018-03-20T08:19:08.583Z,13.97
2018-03-20T08:21:36.773Z,13.77
2018-03-20T08:24:04.964Z,12.83
2018-03-20T08:26:36.614Z,12.00
2018-03-20T08:29:04.795Z,12.07
2018-03-20T08:31:32.933Z,15.27
2018-03-20T08:34:01.094Z,12.97
2018-03-20T08:36:30.964Z,12.07
2018-03-20T08:38:59.142Z,15.90
2018-03-20T08:41:27.300Z,9.73
2018-03-20T08:43:55.447Z,13.60
2018-03-20T08:46:31.050Z,13.37
2018-03-20T08:48:59.191Z,8.87
2018-03-20T08:51:27.380Z,10.83
2018-03-20T08:53:55.518Z,9.50
2018-03-20T08:56:33.962Z,10.27
2018-03-20T08:59:02.134Z,10.87
2018-03-20T09:01:30.293Z,10.13
2018-03-20T09:03:58.456Z,10.67
2018-03-20T09:06:44.587Z,11.90
2018-03-20T09:09:12.839Z,10.00
2018-03-20T09:11:48.758Z,7.93
2018-03-20T09:14:17.693Z,11.63
2018-03-20T09:16:45.878Z,6.53
2018-03-20T09:19:15.182Z,8.13
2018-03-20T09:21:43.382Z,5.60
2018-03-20T09:24:12.327Z,7.47
2018-03-20T09:26:42.540Z,7.30
2018-03-20T09:29:10.748Z,13.20
2018-03-20T09:31:39.009Z,5.10
2018-03-20T09:34:08.043Z,6.27
2018-03-20T09:36:36.291Z,6.73
2018-03-20T09:39:04.514Z,7.97
2018-03-20T09:41:32.737Z,7.77
2018-03-20T09:44:00.982Z,6.20
2018-03-20T09:46:32.557Z,7.90
2018-03-20T09:49:00.787Z,7.17
2018-03-20T09:51:28.926Z,6.73
2018-03-20T09:53:57.081Z,8.10
2018-03-20T09:56:27.179Z,6.07
2018-03-20T09:58:55.330Z,7.80
2018-03-20T10:01:23.521Z,6.33
2018-03-20T10:03:51.714Z,7.30
2018-03-20T10:06:20.796Z,9.33
2018-03-20T10:08:48.950Z,6.40
2018-03-20T10:11:17.166Z,9.00
2018-03-20T10:13:45.319Z,6.30
2018-03-20T10:16:21.571Z,5.83
2018-03-20T10:18:49.759Z,6.30
2018-03-20T10:21:17.906Z,5.33
2018-03-20T10:23:46.076Z,6.33
2018-03-20T10:26:14.222Z,6.50
2018-03-20T10:28:42.359Z,5.50
2018-03-20T10:31:10.505Z,6.37
2018-03-20T10:33:38.634Z,8.73
2018-03-20T10:36:07.178Z,9.43
2018-03-20T10:38:35.314Z,8.67
2018-03-20T10:41:04.292Z,10.57
2018-03-20T10:43:33.287Z,10.03
2018-03-20T10:46:03.258Z,7.57
2018-03-20T10:48:31.463Z,10.00
2018-03-20T10:50:59.741Z,10.23
2018-03-20T10:53:27.894Z,10.90
2018-03-20T10:56:04.329Z,9.47
2018-03-20T10:58:32.531Z,9.57
2018-03-20T11:01:06.504Z,8.80
2018-03-20T11:03:34.699Z,13.20
2018-03-20T11:06:06.663Z,10.53
2018-03-20T11:08:35.487Z,8.23
2018-03-20T11:11:03.683Z,8.97
2018-03-20T11:13:32.579Z,9.57
2018-03-20T11:16:01.478Z,8.77
2018-03-20T11:18:29.629Z,11.73
2018-03-20T11:20:58.534Z,9.03
2018-03-20T11:23:26.698Z,9.27
2018-03-20T11:25:55.603Z,7.73
2018-03-20T11:28:23.804Z,8.53
2018-03-20T11:30:51.989Z,11.90
2018-03-20T11:33:20.155Z,8.50
2018-03-20T11:35:51.929Z,7.57
2018-03-20T11:38:20.212Z,8.83
2018-03-20T11:40:48.370Z,7.53
2018-03-20T11:43:16.560Z,6.53
2018-03-20T11:45:44.769Z,7.33
2018-03-20T11:48:13.710Z,7.70
2018-03-20T11:50:41.890Z,9.47
2018-03-20T11:53:10.097Z,8.37
2018-03-20T11:55:38.342Z,8.67
2018-03-20T11:58:06.579Z,12.03
2018-03-20T12:00:34.878Z,7.17
2018-03-20T12:03:03.059Z,9.37
2018-03-20T12:05:31.256Z,10.70
2018-03-20T12:07:59.425Z,7.23
2018-03-20T12:10:42.172Z,7.50
2018-03-20T12:13:10.322Z,7.60
2018-03-20T12:15:38.465Z,9.13
2018-03-20T12:18:06.606Z,8.63
2018-03-20T12:20:34.871Z,9.50
2018-03-20T12:23:03.087Z,9.07
2018-03-20T12:25:31.237Z,7.97
2018-03-20T12:27:59.370Z,8.57
2018-03-20T12:30:28.299Z,8.13
2018-03-20T12:32:56.508Z,8.20
2018-03-20T12:35:24.664Z,8.00
2018-03-20T12:37:54.771Z,8.97
2018-03-20T12:40:22.936Z,8.53
2018-03-20T12:42:51.082Z,8.50
2018-03-20T12:45:20.004Z,8.03
2018-03-20T12:47:53.344Z,12.60
2018-03-20T12:50:21.603Z,8.73
2018-03-20T12:52:49.777Z,8.80
2018-03-20T12:55:17.966Z,8.50
2018-03-20T12:57:50.564Z,7.27
2018-03-20T13:00:19.621Z,10.03
2018-03-20T13:02:47.818Z,26.30
2018-03-20T13:05:15.972Z,21.43
2018-03-20T13:07:46.165Z,11.63
2018-03-20T13:10:14.372Z,11.17
2018-03-20T13:12:42.581Z,12.37
2018-03-20T13:15:10.828Z,11.87
2018-03-20T13:17:40.021Z,11.63
2018-03-20T13:20:08.229Z,10.00
2018-03-20T13:22:36.628Z,9.00
2018-03-20T13:27:33.634Z,9.10
2018-03-20T13:30:01.827Z,10.17
2018-03-20T13:32:31.031Z,10.00
2018-03-20T13:35:00.014Z,15.47
2018-03-20T13:37:29.172Z,11.73
2018-03-20T13:39:57.425Z,9.33
2018-03-20T13:42:25.636Z,10.97
2018-03-20T13:44:53.889Z,10.13
2018-03-20T13:47:22.181Z,10.60
2018-03-20T13:49:50.376Z,12.03
2018-03-20T13:52:18.599Z,11.07
2018-03-20T13:54:46.832Z,11.30
2018-03-20T13:57:15.991Z,10.90
2018-03-20T13:59:45.179Z,15.17
2018-03-20T14:02:13.797Z,10.90
2018-03-20T14:04:42.046Z,10.60
2018-03-20T14:07:21.948Z,12.90
2018-03-20T14:09:50.898Z,14.83
2018-03-20T14:12:19.074Z,12.50
2018-03-20T14:14:47.341Z,11.27
2018-03-20T14:17:16.476Z,9.00
2018-03-20T14:19:45.491Z,9.87
2018-03-20T14:22:14.406Z,8.80
2018-03-20T14:24:42.558Z,12.63
2018-03-20T14:27:10.699Z,11.10
2018-03-20T14:29:38.854Z,10.63
2018-03-20T14:32:06.982Z,9.90
2018-03-20T14:34:35.136Z,12.40
2018-03-20T14:37:20.820Z,8.57
2018-03-20T14:39:49.748Z,9.23
2018-03-20T14:42:17.905Z,11.57
2018-03-20T14:44:46.082Z,12.00
2018-03-20T14:47:14.230Z,11.30
2018-03-20T14:49:43.143Z,10.80
2018-03-20T14:52:11.314Z,11.40
2018-03-20T14:54:39.494Z,11.23
2018-03-20T14:57:07.651Z,9.00
2018-03-20T14:59:36.555Z,10.47
2018-03-20T15:02:04.714Z,11.13
2018-03-20T15:04:33.613Z,10.43
2018-03-20T15:07:05.706Z,9.60
2018-03-20T15:09:33.830Z,9.73
2018-03-20T15:12:01.986Z,9.10
2018-03-20T15:14:30.124Z,10.37
2018-03-20T15:17:12.304Z,9.27
2018-03-20T15:19:40.455Z,8.73
2018-03-20T15:22:09.379Z,10.57
2018-03-20T15:24:37.513Z,8.63
2018-03-20T15:27:21.338Z,8.33
2018-03-20T15:29:49.477Z,8.83
2018-03-20T15:32:18.395Z,8.23
2018-03-20T15:34:46.561Z,11.17
2018-03-20T15:37:14.727Z,11.77
2018-03-20T15:39:42.867Z,11.53
2018-03-20T15:42:18.505Z,9.53
2018-03-20T15:44:46.650Z,8.17
2018-03-20T15:47:14.854Z,10.07
2018-03-20T15:49:42.994Z,11.67
2018-03-20T15:52:11.174Z,9.63
2018-03-20T15:54:39.346Z,9.77
2018-03-20T15:57:07.482Z,11.77
2018-03-20T15:59:35.642Z,11.83
2018-03-20T16:02:03.797Z,9.53
2018-03-20T16:04:31.949Z,9.10
2018-03-20T16:07:00.854Z,9.60
2018-03-20T16:09:29.778Z,13.43
2018-03-20T16:11:57.910Z,23.43
2018-03-20T16:14:26.831Z,12.73
2018-03-20T16:16:55.966Z,10.53
2018-03-20T16:19:24.146Z,8.77
2018-03-20T16:21:52.282Z,12.07
2018-03-20T16:24:20.449Z,9.93
2018-03-20T16:26:49.365Z,7.93
2018-03-20T16:29:17.531Z,8.93
2018-03-20T16:31:45.662Z,9.23
2018-03-20T16:34:14.582Z,12.50
2018-03-20T16:36:43.689Z,9.13
2018-03-20T16:39:11.855Z,10.60
2018-03-20T16:41:40.002Z,8.10
2018-03-20T16:44:08.161Z,9.03
2018-03-20T16:46:36.338Z,11.23
2018-03-20T16:49:04.457Z,8.70
2018-03-20T16:51:32.616Z,9.90
2018-03-20T16:54:00.751Z,11.83
2018-03-20T16:56:29.667Z,9.37
2018-03-20T16:58:57.795Z,8.73
2018-03-20T17:01:25.962Z,11.47
2018-03-20T17:03:54.196Z,10.13
2018-03-20T17:06:22.448Z,9.03
2018-03-20T17:08:50.608Z,10.10
2018-03-20T17:11:19.561Z,8.70
2018-03-20T17:13:47.719Z,12.80
2018-03-20T17:16:19.639Z,10.60
2018-03-20T17:18:47.813Z,10.37
2018-03-20T17:21:16.841Z,11.33
2018-03-20T17:23:45.067Z,10.67
2018-03-20T17:26:13.286Z,13.17
2018-03-20T17:28:41.526Z,10.60
2018-03-20T17:31:10.482Z,10.70
2018-03-20T17:33:38.699Z,12.10
2018-03-20T17:36:06.842Z,14.17
2018-03-20T17:38:34.988Z,11.03
2018-03-20T17:41:03.164Z,14.67
2018-03-20T17:43:31.298Z,15.10
2018-03-20T17:46:00.443Z,16.33
2018-03-20T17:48:28.577Z,15.47
2018-03-20T17:50:56.754Z,13.70
2018-03-20T17:53:24.887Z,14.80
2018-03-20T17:56:20.506Z,11.47
2018-03-20T17:58:48.641Z,10.93
2018-03-20T18:01:16.786Z,9.30
2018-03-20T18:03:44.913Z,8.57
2018-03-20T18:06:15.002Z,8.73
2018-03-20T18:08:43.138Z,8.07
2018-03-20T18:11:11.297Z,16.53
2018-03-20T18:13:41.062Z,8.80
2018-03-20T18:16:09.234Z,8.50
2018-03-20T18:18:37.375Z,8.03
2018-03-20T18:21:05.516Z,10.10
2018-03-20T18:23:33.677Z,11.30
2018-03-20T18:26:01.942Z,7.57
2018-03-20T18:28:30.099Z,6.30
2018-03-20T18:30:58.242Z,6.17
2018-03-20T18:33:26.407Z,6.57
2018-03-20T18:35:59.727Z,5.57
2018-03-20T18:38:27.895Z,5.40
2018-03-20T18:40:56.875Z,7.47
2018-03-20T18:43:25.077Z,5.23
2018-03-20T18:45:56.469Z,4.80
2018-03-20T18:48:24.707Z,4.57
2018-03-20T18:50:52.884Z,4.47
2018-03-20T18:53:21.118Z,5.23
2018-03-20T18:55:57.002Z,4.80
2018-03-20T18:58:25.215Z,4.87
2018-03-20T19:00:53.397Z,5.17
2018-03-20T19:03:22.443Z,4.87
2018-03-20T19:05:58.493Z,5.07
2018-03-20T19:08:26.731Z,4.40
2018-03-20T19:10:55.683Z,5.10
2018-03-20T19:13:23.875Z,4.50
2018-03-20T19:15:52.083Z,4.40
2018-03-20T19:18:21.306Z,5.27
2018-03-20T19:20:49.506Z,5.77
2018-03-20T19:23:17.688Z,3.93
2018-03-20T19:25:49.452Z,7.40
2018-03-20T19:28:17.687Z,5.27
2018-03-20T19:30:45.838Z,5.30
2018-03-20T19:33:14.035Z,5.30
2018-03-20T19:35:45.930Z,5.10
2018-03-20T19:38:14.171Z,5.03
2018-03-20T19:40:42.362Z,5.23
2018-03-20T19:43:10.564Z,6.03
2018-03-20T19:45:38.760Z,4.83
2018-03-20T19:48:07.719Z,5.23
2018-03-20T19:50:35.982Z,5.20
2018-03-20T19:53:04.156Z,4.77
2018-03-20T19:55:32.333Z,5.50
2018-03-20T19:58:00.545Z,5.37
2018-03-20T20:00:29.523Z,5.27
2018-03-20T20:02:57.727Z,5.47
2018-03-20T20:05:25.940Z,6.73
2018-03-20T20:08:01.507Z,4.70
2018-03-20T20:10:29.771Z,5.63
2018-03-20T20:12:58.008Z,6.53
2018-03-20T20:15:26.221Z,10.13
2018-03-20T20:17:54.447Z,30.13
2018-03-20T20:20:22.781Z,54.10
2018-03-20T20:22:51.660Z,68.03
2018-03-20T20:25:19.891Z,73.50
2018-03-20T20:27:49.052Z,30.73
2018-03-20T20:30:17.319Z,11.37
2018-03-20T20:32:45.543Z,7.63
2018-03-20T20:35:13.792Z,7.33
2018-03-20T20:37:43.715Z,6.97
2018-03-20T20:40:12.712Z,5.80
2018-03-20T20:42:41.689Z,6.77
2018-03-20T20:45:10.673Z,7.23
2018-03-20T20:47:38.875Z,6.13
2018-03-20T20:50:07.131Z,7.60
2018-03-20T20:52:36.153Z,8.10
2018-03-20T20:55:04.371Z,6.60
2018-03-20T20:57:33.600Z,6.63
2018-03-20T21:00:01.823Z,8.43
2018-03-20T21:02:30.071Z,7.70
2018-03-20T21:04:58.325Z,9.53
2018-03-20T21:07:38.600Z,6.60
2018-03-20T21:10:06.769Z,5.87
2018-03-20T21:12:34.978Z,6.87
2018-03-20T21:15:03.168Z,7.23
2018-03-20T21:17:34.419Z,6.43
2018-03-20T21:20:02.631Z,4.97
2018-03-20T21:22:31.647Z,5.47
2018-03-20T21:24:59.892Z,6.27
2018-03-20T21:27:28.949Z,7.30
2018-03-20T21:29:57.163Z,6.10
2018-03-20T21:32:26.177Z,7.43
2018-03-20T21:34:54.412Z,7.77
2018-03-20T21:37:37.565Z,11.73
2018-03-20T21:40:06.578Z,7.60
2018-03-20T21:42:34.866Z,7.50
2018-03-20T21:45:03.059Z,6.37
2018-03-20T21:47:48.254Z,8.33
2018-03-20T21:50:17.135Z,6.40
2018-03-20T21:52:45.320Z,5.67
2018-03-20T21:55:13.479Z,6.90
2018-03-20T21:57:41.685Z,6.23
2018-03-20T22:00:10.688Z,5.20
2018-03-20T22:02:38.882Z,6.43
2018-03-20T22:05:07.022Z,5.20
2018-03-20T22:07:35.195Z,5.03
2018-03-20T22:10:04.228Z,6.53
2018-03-20T22:12:32.499Z,6.87
2018-03-20T22:15:00.645Z,5.03
2018-03-20T22:17:34.729Z,4.60
2018-03-20T22:20:02.880Z,4.53
2018-03-20T22:22:31.074Z,4.33
2018-03-20T22:24:59.243Z,4.60
2018-03-20T22:27:28.382Z,4.57
2018-03-20T22:29:56.539Z,5.00
2018-03-20T22:32:25.531Z,4.20
2018-03-20T22:34:53.746Z,6.37
2018-03-20T22:37:24.923Z,4.27
2018-03-20T22:39:53.080Z,5.30
2018-03-20T22:42:21.274Z,6.70
2018-03-20T22:44:49.409Z,4.20
2018-03-20T22:47:26.942Z,4.90
2018-03-20T22:49:55.104Z,5.40
2018-03-20T22:52:23.254Z,7.43
2018-03-20T22:54:51.418Z,4.87
2018-03-20T22:57:23.696Z,5.83
2018-03-20T22:59:51.872Z,7.87
2018-03-20T23:02:20.024Z,6.83
2018-03-20T23:04:48.206Z,5.77
2018-03-20T23:07:23.969Z,8.27
2018-03-20T23:09:52.122Z,9.30
2018-03-20T23:12:20.260Z,7.20
2018-03-20T23:14:48.414Z,4.87
2018-03-20T23:17:21.994Z,6.83
2018-03-20T23:19:50.158Z,5.73
2018-03-20T23:22:18.303Z,7.50
2018-03-20T23:24:46.478Z,5.53
2018-03-20T23:27:21.850Z,7.17
2018-03-20T23:29:50.014Z,5.03
2018-03-20T23:32:18.160Z,6.97
2018-03-20T23:34:47.086Z,8.73
2018-03-20T23:37:18.942Z,7.10
2018-03-20T23:39:47.097Z,5.90
2018-03-20T23:42:15.247Z,6.70
2018-03-20T23:44:44.247Z,4.60
2018-03-20T23:47:14.414Z,8.20
2018-03-20T23:49:42.578Z,7.13
2018-03-20T23:52:10.722Z,8.47
2018-03-20T23:54:39.650Z,5.50
2018-03-20T23:57:07.788Z,9.10
2018-03-20T23:59:35.952Z,5.03
